sensor_id;sensor_type;location;lat;lon;timestamp;pressure;altitude;pressure_sealevel;temperature;humidity
73398;BME280;63606;52.328;20.964;2022-11-14T00:00:54;102169.44;;;8.38;93.73
73398;BME280;63606;52.328;20.964;2022-11-14T00:03:20;102173.47;;;8.42;93.53
73398;BME280;63606;52.328;20.964;2022-11-14T00:05:46;102168.09;;;8.42;94.06
73398;BME280;63606;52.328;20.964;2022-11-14T00:08:20;102170.59;;;8.43;93.57
73398;BME280;63606;52.328;20.964;2022-11-14T00:10:47;102166.06;;;8.44;94.11
73398;BME280;63606;52.328;20.964;2022-11-14T00:13:14;102170.78;;;8.42;93.57
73398;BME280;63606;52.328;20.964;2022-11-14T00:15:40;102163.56;;;8.42;93.50
73398;BME280;63606;52.328;20.964;2022-11-14T00:18:06;102166.78;;;8.38;94.04
73398;BME280;63606;52.328;20.964;2022-11-14T00:20:31;102166.78;;;8.38;93.97
73398;BME280;63606;52.328;20.964;2022-11-14T00:22:57;102163.91;;;8.39;93.69
73398;BME280;63606;52.328;20.964;2022-11-14T00:25:22;102166.13;;;8.36;93.94
73398;BME280;63606;52.328;20.964;2022-11-14T00:27:48;102165.09;;;8.37;94.01
73398;BME280;63606;52.328;20.964;2022-11-14T00:30:14;102161.59;;;8.36;94.33
73398;BME280;63606;52.328;20.964;2022-11-14T00:32:39;102163.25;;;8.37;94.64
73398;BME280;63606;52.328;20.964;2022-11-14T00:35:05;102167.59;;;8.38;94.18
73398;BME280;63606;52.328;20.964;2022-11-14T00:37:31;102167.25;;;8.41;94.13
73398;BME280;63606;52.328;20.964;2022-11-14T00:39:57;102155.34;;;8.44;93.46
73398;BME280;63606;52.328;20.964;2022-11-14T00:42:22;102161.91;;;8.41;93.26
73398;BME280;63606;52.328;20.964;2022-11-14T00:44:48;102159.41;;;8.40;93.68
73398;BME280;63606;52.328;20.964;2022-11-14T00:47:13;102151.53;;;8.38;94.23
73398;BME280;63606;52.328;20.964;2022-11-14T00:49:39;102156.06;;;8.38;94.33
73398;BME280;63606;52.328;20.964;2022-11-14T00:52:04;102155.22;;;8.37;92.32
73398;BME280;63606;52.328;20.964;2022-11-14T00:54:30;102146.03;;;8.31;92.72
73398;BME280;63606;52.328;20.964;2022-11-14T00:56:55;102146.03;;;8.31;92.41
73398;BME280;63606;52.328;20.964;2022-11-14T00:59:21;102143.19;;;8.33;91.93
73398;BME280;63606;52.328;20.964;2022-11-14T01:01:46;102144.38;;;8.30;93.31
73398;BME280;63606;52.328;20.964;2022-11-14T01:04:12;102139.66;;;8.32;92.47
73398;BME280;63606;52.328;20.964;2022-11-14T01:06:37;102137.31;;;8.29;91.79
73398;BME280;63606;52.328;20.964;2022-11-14T01:09:03;102138.53;;;8.27;91.75
73398;BME280;63606;52.328;20.964;2022-11-14T01:11:29;102125.31;;;8.25;92.44
73398;BME280;63606;52.328;20.964;2022-11-14T01:13:54;102129.03;;;8.24;92.76
73398;BME280;63606;52.328;20.964;2022-11-14T01:16:20;102128.06;;;8.17;92.83
73398;BME280;63606;52.328;20.964;2022-11-14T01:18:45;102126.03;;;8.19;92.26
73398;BME280;63606;52.328;20.964;2022-11-14T01:21:12;102129.38;;;8.21;93.07
73398;BME280;63606;52.328;20.964;2022-11-14T01:23:39;102121.88;;;8.17;93.32
73398;BME280;63606;52.328;20.964;2022-11-14T01:26:07;102120.09;;;8.09;91.99
73398;BME280;63606;52.328;20.964;2022-11-14T01:28:34;102120.94;;;8.10;93.14
73398;BME280;63606;52.328;20.964;2022-11-14T01:31:26;102111.91;;;8.11;93.60
73398;BME280;63606;52.328;20.964;2022-11-14T01:33:52;102117.28;;;8.11;92.97
73398;BME280;63606;52.328;20.964;2022-11-14T01:36:19;102107.19;;;8.13;92.75
73398;BME280;63606;52.328;20.964;2022-11-14T01:38:45;102112.38;;;8.14;93.27
73398;BME280;63606;52.328;20.964;2022-11-14T01:41:12;102100.00;;;8.13;93.35
73398;BME280;63606;52.328;20.964;2022-11-14T01:43:39;102103.50;;;8.14;93.48
73398;BME280;63606;52.328;20.964;2022-11-14T01:46:22;102104.31;;;8.14;93.70
73398;BME280;63606;52.328;20.964;2022-11-14T01:51:22;102099.25;;;8.19;92.99
73398;BME280;63606;52.328;20.964;2022-11-14T01:53:50;102099.63;;;8.16;92.97
73398;BME280;63606;52.328;20.964;2022-11-14T01:56:33;102101.75;;;8.21;92.54
73398;BME280;63606;52.328;20.964;2022-11-14T01:59:08;102087.88;;;8.17;93.07
73398;BME280;63606;52.328;20.964;2022-11-14T02:01:44;102099.63;;;8.16;92.64
73398;BME280;63606;52.328;20.964;2022-11-14T02:04:10;102089.28;;;8.13;92.78
73398;BME280;63606;52.328;20.964;2022-11-14T02:06:39;102092.47;;;8.09;92.76
73398;BME280;63606;52.328;20.964;2022-11-14T02:09:06;102082.59;;;8.09;92.60
73398;BME280;63606;52.328;20.964;2022-11-14T02:11:38;102084.34;;;8.02;92.71
73398;BME280;63606;52.328;20.964;2022-11-14T02:14:05;102091.06;;;7.98;93.08
73398;BME280;63606;52.328;20.964;2022-11-14T02:16:31;102085.91;;;7.96;94.01
73398;BME280;63606;52.328;20.964;2022-11-14T02:18:56;102081.69;;;8.02;93.18
73398;BME280;63606;52.328;20.964;2022-11-14T02:21:22;102074.28;;;8.04;92.96
73398;BME280;63606;52.328;20.964;2022-11-14T02:23:47;102082.03;;;7.99;92.48
73398;BME280;63606;52.328;20.964;2022-11-14T02:26:18;102072.97;;;8.00;93.04
73398;BME280;63606;52.328;20.964;2022-11-14T02:28:45;102071.50;;;7.97;93.38
73398;BME280;63606;52.328;20.964;2022-11-14T02:31:11;102072.13;;;7.99;93.05
73398;BME280;63606;52.328;20.964;2022-11-14T02:33:37;102068.75;;;8.06;93.02
73398;BME280;63606;52.328;20.964;2022-11-14T02:36:02;102070.59;;;8.05;92.96
73398;BME280;63606;52.328;20.964;2022-11-14T02:38:28;102063.19;;;8.07;92.60
73398;BME280;63606;52.328;20.964;2022-11-14T02:40:53;102071.59;;;8.04;92.94
73398;BME280;63606;52.328;20.964;2022-11-14T02:43:19;102061.53;;;8.06;92.37
73398;BME280;63606;52.328;20.964;2022-11-14T02:45:45;102057.84;;;8.07;91.80
73398;BME280;63606;52.328;20.964;2022-11-14T02:48:11;102060.69;;;8.06;92.40
73398;BME280;63606;52.328;20.964;2022-11-14T02:50:37;102056.72;;;8.01;93.56
73398;BME280;63606;52.328;20.964;2022-11-14T02:53:02;102059.41;;;8.01;92.27
73398;BME280;63606;52.328;20.964;2022-11-14T02:55:28;102061.06;;;8.02;92.68
73398;BME280;63606;52.328;20.964;2022-11-14T02:57:53;102056.25;;;7.98;93.22
73398;BME280;63606;52.328;20.964;2022-11-14T03:00:19;102059.94;;;7.97;93.76
73398;BME280;63606;52.328;20.964;2022-11-14T03:02:44;102051.91;;;7.97;93.57
73398;BME280;63606;52.328;20.964;2022-11-14T03:05:10;102052.28;;;7.94;92.98
73398;BME280;63606;52.328;20.964;2022-11-14T03:07:35;102052.63;;;7.91;94.00
73398;BME280;63606;52.328;20.964;2022-11-14T03:10:01;102054.31;;;7.92;95.04
73398;BME280;63606;52.328;20.964;2022-11-14T03:12:26;102055.69;;;7.88;94.16
73398;BME280;63606;52.328;20.964;2022-11-14T03:14:52;102055.16;;;7.92;94.61
73398;BME280;63606;52.328;20.964;2022-11-14T03:17:17;102052.47;;;7.92;94.58
73398;BME280;63606;52.328;20.964;2022-11-14T03:19:43;102056.69;;;7.87;94.44
73398;BME280;63606;52.328;20.964;2022-11-14T03:22:08;102055.03;;;7.86;95.18
73398;BME280;63606;52.328;20.964;2022-11-14T03:24:34;102052.06;;;7.81;94.84
73398;BME280;63606;52.328;20.964;2022-11-14T03:26:59;102049.09;;;7.75;95.46
73398;BME280;63606;52.328;20.964;2022-11-14T03:29:25;102042.91;;;7.75;95.05
73398;BME280;63606;52.328;20.964;2022-11-14T03:31:50;102049.09;;;7.75;95.31
73398;BME280;63606;52.328;20.964;2022-11-14T03:34:16;102037.19;;;7.78;95.87
73398;BME280;63606;52.328;20.964;2022-11-14T03:36:42;102031.47;;;7.81;95.62
73398;BME280;63606;52.328;20.964;2022-11-14T03:39:07;102026.22;;;7.88;94.88
73398;BME280;63606;52.328;20.964;2022-11-14T03:41:33;102028.91;;;7.88;94.75
73398;BME280;63606;52.328;20.964;2022-11-14T03:43:58;102037.94;;;7.87;94.66
73398;BME280;63606;52.328;20.964;2022-11-14T03:46:24;102036.28;;;7.86;94.76
73398;BME280;63606;52.328;20.964;2022-11-14T03:48:49;102027.22;;;7.87;94.78
73398;BME280;63606;52.328;20.964;2022-11-14T03:51:15;102025.28;;;7.81;95.09
73398;BME280;63606;52.328;20.964;2022-11-14T03:53:40;102033.50;;;7.79;95.67
73398;BME280;63606;52.328;20.964;2022-11-14T03:56:06;102030.63;;;7.81;95.86
73398;BME280;63606;52.328;20.964;2022-11-14T03:58:31;102026.97;;;7.82;95.99
73398;BME280;63606;52.328;20.964;2022-11-14T04:00:57;102018.56;;;7.85;95.22
73398;BME280;63606;52.328;20.964;2022-11-14T04:03:23;102018.00;;;7.89;95.47
73398;BME280;63606;52.328;20.964;2022-11-14T04:05:49;102026.84;;;7.90;95.08
73398;BME280;63606;52.328;20.964;2022-11-14T04:08:15;102025.84;;;7.91;94.98
73398;BME280;63606;52.328;20.964;2022-11-14T04:10:40;102015.81;;;7.93;94.76
73398;BME280;63606;52.328;20.964;2022-11-14T04:13:06;102013.13;;;7.93;94.73
73398;BME280;63606;52.328;20.964;2022-11-14T04:15:32;102014.03;;;8.00;95.14
73398;BME280;63606;52.328;20.964;2022-11-14T04:17:59;102014.84;;;8.00;94.18
73398;BME280;63606;52.328;20.964;2022-11-14T04:20:24;102018.09;;;7.96;94.79
73398;BME280;63606;52.328;20.964;2022-11-14T04:22:50;102011.53;;;7.98;94.86
73398;BME280;63606;52.328;20.964;2022-11-14T04:25:16;102014.22;;;7.98;93.45
73398;BME280;63606;52.328;20.964;2022-11-14T04:27:42;102013.47;;;7.90;93.92
73398;BME280;63606;52.328;20.964;2022-11-14T04:30:08;102009.13;;;7.89;94.27
73398;BME280;63606;52.328;20.964;2022-11-14T04:32:34;102010.03;;;7.81;94.79
73398;BME280;63606;52.328;20.964;2022-11-14T04:34:59;101999.81;;;7.85;94.96
73398;BME280;63606;52.328;20.964;2022-11-14T04:37:25;101999.44;;;7.88;94.92
73398;BME280;63606;52.328;20.964;2022-11-14T04:39:50;102002.75;;;7.90;94.45
73398;BME280;63606;52.328;20.964;2022-11-14T04:42:16;101997.78;;;7.87;94.99
73398;BME280;63606;52.328;20.964;2022-11-14T04:44:41;102002.09;;;7.88;94.28
73398;BME280;63606;52.328;20.964;2022-11-14T04:47:07;101997.50;;;7.82;93.47
73398;BME280;63606;52.328;20.964;2022-11-14T04:49:32;101989.91;;;7.85;93.77
73398;BME280;63606;52.328;20.964;2022-11-14T04:51:58;101998.50;;;7.81;93.83
73398;BME280;63606;52.328;20.964;2022-11-14T04:54:23;101995.53;;;7.75;93.77
73398;BME280;63606;52.328;20.964;2022-11-14T04:56:49;101990.66;;;7.79;94.29
73398;BME280;63606;52.328;20.964;2022-11-14T04:59:14;101998.50;;;7.81;93.64
73398;BME280;63606;52.328;20.964;2022-11-14T05:01:40;101999.16;;;7.83;94.14
73398;BME280;63606;52.328;20.964;2022-11-14T05:04:05;101989.81;;;7.79;93.95
73398;BME280;63606;52.328;20.964;2022-11-14T05:06:31;101992.22;;;7.73;94.72
73398;BME280;63606;52.328;20.964;2022-11-14T05:08:56;101994.91;;;7.73;94.91
73398;BME280;63606;52.328;20.964;2022-11-14T05:11:22;101987.22;;;7.70;95.06
73398;BME280;63606;52.328;20.964;2022-11-14T05:13:48;101994.59;;;7.68;94.64
73398;BME280;63606;52.328;20.964;2022-11-14T05:16:13;101980.56;;;7.66;95.40
73398;BME280;63606;52.328;20.964;2022-11-14T05:18:39;101988.28;;;7.61;95.12
73398;BME280;63606;52.328;20.964;2022-11-14T05:21:05;101983.63;;;7.63;94.89
73398;BME280;63606;52.328;20.964;2022-11-14T05:23:31;101986.94;;;7.65;95.90
73398;BME280;63606;52.328;20.964;2022-11-14T05:26:04;101976.56;;;7.62;95.40
73398;BME280;63606;52.328;20.964;2022-11-14T05:28:30;101981.94;;;7.62;95.59
73398;BME280;63606;52.328;20.964;2022-11-14T05:31:09;101986.44;;;7.62;95.60
73398;BME280;63606;52.328;20.964;2022-11-14T05:33:36;101978.06;;;7.65;95.97
73398;BME280;63606;52.328;20.964;2022-11-14T05:38:28;101985.09;;;7.66;95.10
73398;BME280;63606;52.328;20.964;2022-11-14T05:40:54;101988.97;;;7.63;95.22
73398;BME280;63606;52.328;20.964;2022-11-14T05:43:19;101986.44;;;7.62;95.04
73398;BME280;63606;52.328;20.964;2022-11-14T05:45:45;101987.28;;;7.62;95.04
73398;BME280;63606;52.328;20.964;2022-11-14T05:48:10;101997.00;;;7.63;94.34
73398;BME280;63606;52.328;20.964;2022-11-14T05:50:36;101992.81;;;7.61;94.58
73398;BME280;63606;52.328;20.964;2022-11-14T05:53:02;102002.69;;;7.60;94.32
73398;BME280;63606;52.328;20.964;2022-11-14T05:55:27;101995.69;;;7.59;94.75
73398;BME280;63606;52.328;20.964;2022-11-14T05:57:57;101989.31;;;7.60;95.18
73398;BME280;63606;52.328;20.964;2022-11-14T06:00:23;101995.31;;;7.62;95.42
73398;BME280;63606;52.328;20.964;2022-11-14T06:02:54;101992.00;;;7.60;94.91
73398;BME280;63606;52.328;20.964;2022-11-14T06:05:21;101984.59;;;7.62;93.99
73398;BME280;63606;52.328;20.964;2022-11-14T06:07:47;101984.16;;;7.59;94.57
73398;BME280;63606;52.328;20.964;2022-11-14T06:10:13;101989.69;;;7.57;95.25
73398;BME280;63606;52.328;20.964;2022-11-14T06:12:39;101993.38;;;7.56;95.34
73398;BME280;63606;52.328;20.964;2022-11-14T06:15:04;101991.34;;;7.58;94.41
73398;BME280;63606;52.328;20.964;2022-11-14T06:17:30;101992.00;;;7.60;95.12
73398;BME280;63606;52.328;20.964;2022-11-14T06:19:56;101986.00;;;7.58;95.68
73398;BME280;63606;52.328;20.964;2022-11-14T06:22:21;101989.97;;;7.62;95.49
73398;BME280;63606;52.328;20.964;2022-11-14T06:24:47;101999.00;;;7.61;94.21
73398;BME280;63606;52.328;20.964;2022-11-14T06:27:12;102000.84;;;7.61;94.66
73398;BME280;63606;52.328;20.964;2022-11-14T06:29:38;102004.72;;;7.58;93.69
73398;BME280;63606;52.328;20.964;2022-11-14T06:32:04;101997.72;;;7.57;93.87
73398;BME280;63606;52.328;20.964;2022-11-14T06:34:29;102007.59;;;7.57;93.46
73398;BME280;63606;52.328;20.964;2022-11-14T06:36:55;102007.59;;;7.57;93.57
73398;BME280;63606;52.328;20.964;2022-11-14T06:39:20;102012.13;;;7.56;93.75
73398;BME280;63606;52.328;20.964;2022-11-14T06:41:46;102011.16;;;7.49;94.08
73398;BME280;63606;52.328;20.964;2022-11-14T06:44:11;102005.81;;;7.49;94.31
73398;BME280;63606;52.328;20.964;2022-11-14T06:46:39;102013.00;;;7.49;94.42
73398;BME280;63606;52.328;20.964;2022-11-14T06:49:04;102008.69;;;7.47;94.76
73398;BME280;63606;52.328;20.964;2022-11-14T06:51:30;102007.66;;;7.49;95.07
73398;BME280;63606;52.328;20.964;2022-11-14T06:53:56;102006.75;;;7.56;94.55
73398;BME280;63606;52.328;20.964;2022-11-14T06:56:22;102010.91;;;7.59;94.79
73398;BME280;63606;52.328;20.964;2022-11-14T06:58:48;101999.84;;;7.62;94.99
73398;BME280;63606;52.328;20.964;2022-11-14T07:01:18;102004.47;;;7.68;94.36
73398;BME280;63606;52.328;20.964;2022-11-14T07:03:44;101997.00;;;7.63;94.37
73398;BME280;63606;52.328;20.964;2022-11-14T07:06:15;102010.09;;;7.58;94.25
73398;BME280;63606;52.328;20.964;2022-11-14T07:08:41;102009.72;;;7.61;94.19
73398;BME280;63606;52.328;20.964;2022-11-14T07:11:12;102018.75;;;7.60;93.61
73398;BME280;63606;52.328;20.964;2022-11-14T07:13:50;102004.38;;;7.61;92.92
73398;BME280;63606;52.328;20.964;2022-11-14T07:16:17;101999.84;;;7.62;91.46
73398;BME280;63606;52.328;20.964;2022-11-14T07:18:42;102002.69;;;7.60;92.48
73398;BME280;63606;52.328;20.964;2022-11-14T07:21:08;102003.72;;;7.59;92.77
73398;BME280;63606;52.328;20.964;2022-11-14T07:23:34;101994.41;;;7.55;92.57
73398;BME280;63606;52.328;20.964;2022-11-14T07:26:01;101989.03;;;7.55;92.97
73398;BME280;63606;52.328;20.964;2022-11-14T07:28:27;101993.19;;;7.58;93.02
73398;BME280;63606;52.328;20.964;2022-11-14T07:30:53;101999.38;;;7.58;92.22
73398;BME280;63606;52.328;20.964;2022-11-14T07:33:18;101996.88;;;7.57;92.84
73398;BME280;63606;52.328;20.964;2022-11-14T07:35:44;101989.31;;;7.60;91.13
73398;BME280;63606;52.328;20.964;2022-11-14T07:38:09;101987.66;;;7.59;91.59
73398;BME280;63606;52.328;20.964;2022-11-14T07:40:35;101989.97;;;7.62;91.57
73398;BME280;63606;52.328;20.964;2022-11-14T07:43:01;101984.34;;;7.57;91.08
73398;BME280;63606;52.328;20.964;2022-11-14T07:45:28;101981.66;;;7.57;92.33
73398;BME280;63606;52.328;20.964;2022-11-14T07:47:58;101988.28;;;7.61;92.34
73398;BME280;63606;52.328;20.964;2022-11-14T07:50:25;101978.78;;;7.59;91.75
73398;BME280;63606;52.328;20.964;2022-11-14T07:52:52;101988.03;;;7.56;91.16
73398;BME280;63606;52.328;20.964;2022-11-14T07:55:19;101984.16;;;7.59;91.84
73398;BME280;63606;52.328;20.964;2022-11-14T07:57:45;101984.34;;;7.57;92.02
73398;BME280;63606;52.328;20.964;2022-11-14T08:00:11;101986.72;;;7.52;91.49
73398;BME280;63606;52.328;20.964;2022-11-14T08:02:37;101981.53;;;7.51;91.91
73398;BME280;63606;52.328;20.964;2022-11-14T08:05:03;101986.72;;;7.52;91.53
73398;BME280;63606;52.328;20.964;2022-11-14T08:07:28;101984.84;;;7.53;91.72
73398;BME280;63606;52.328;20.964;2022-11-14T08:09:54;101981.34;;;7.52;91.91
73398;BME280;63606;52.328;20.964;2022-11-14T08:12:20;101977.50;;;7.55;90.69
73398;BME280;63606;52.328;20.964;2022-11-14T08:14:45;101980.38;;;7.53;90.70
73398;BME280;63606;52.328;20.964;2022-11-14T08:17:11;101980.81;;;7.57;91.27
73398;BME280;63606;52.328;20.964;2022-11-14T08:19:36;101972.97;;;7.55;91.04
73398;BME280;63606;52.328;20.964;2022-11-14T08:22:02;101972.16;;;7.55;91.36
73398;BME280;63606;52.328;20.964;2022-11-14T08:24:27;101969.28;;;7.56;91.08
73398;BME280;63606;52.328;20.964;2022-11-14T08:26:53;101970.31;;;7.55;91.52
73398;BME280;63606;52.328;20.964;2022-11-14T08:29:19;101960.88;;;7.59;91.44
73398;BME280;63606;52.328;20.964;2022-11-14T08:31:45;101967.91;;;7.60;91.79
73398;BME280;63606;52.328;20.964;2022-11-14T08:34:11;101966.53;;;7.64;90.81
73398;BME280;63606;52.328;20.964;2022-11-14T08:36:37;101964.19;;;7.61;90.97
73398;BME280;63606;52.328;20.964;2022-11-14T08:39:02;101962.34;;;7.62;91.93
73398;BME280;63606;52.328;20.964;2022-11-14T08:41:28;101970.22;;;7.63;92.56
73398;BME280;63606;52.328;20.964;2022-11-14T08:43:54;101952.47;;;7.62;92.58
73398;BME280;63606;52.328;20.964;2022-11-14T08:46:19;101959.53;;;7.63;92.25
73398;BME280;63606;52.328;20.964;2022-11-14T08:48:45;101955.81;;;7.64;91.57
73398;BME280;63606;52.328;20.964;2022-11-14T08:51:10;101953.91;;;7.73;90.84
73398;BME280;63606;52.328;20.964;2022-11-14T08:53:36;101947.41;;;7.67;91.89
73398;BME280;63606;52.328;20.964;2022-11-14T08:56:02;101953.78;;;7.66;92.10
73398;BME280;63606;52.328;20.964;2022-11-14T08:58:31;101954.72;;;7.73;90.96
73398;BME280;63606;52.328;20.964;2022-11-14T09:01:01;101947.88;;;7.71;89.25
73398;BME280;63606;52.328;20.964;2022-11-14T09:03:28;101952.47;;;7.62;89.57
73398;BME280;63606;52.328;20.964;2022-11-14T09:05:55;101955.16;;;7.62;89.84
73398;BME280;63606;52.328;20.964;2022-11-14T09:08:21;101940.09;;;7.61;89.70
73398;BME280;63606;52.328;20.964;2022-11-14T09:10:46;101952.84;;;7.59;89.77
73398;BME280;63606;52.328;20.964;2022-11-14T09:13:12;101951.19;;;7.58;89.44
73398;BME280;63606;52.328;20.964;2022-11-14T09:15:38;101944.00;;;7.59;90.17
73398;BME280;63606;52.328;20.964;2022-11-14T09:18:03;101933.09;;;7.60;90.24
73398;BME280;63606;52.328;20.964;2022-11-14T09:20:29;101934.75;;;7.61;89.95
73398;BME280;63606;52.328;20.964;2022-11-14T09:22:59;101930.91;;;7.64;89.85
73398;BME280;63606;52.328;20.964;2022-11-14T09:25:24;101924.34;;;7.66;89.31
73398;BME280;63606;52.328;20.964;2022-11-14T09:27:53;101931.06;;;7.62;89.64
73398;BME280;63606;52.328;20.964;2022-11-14T09:30:19;101922.50;;;7.67;88.35
73398;BME280;63606;52.328;20.964;2022-11-14T09:32:47;101919.63;;;7.68;88.09
73398;BME280;63606;52.328;20.964;2022-11-14T09:35:13;101918.41;;;7.71;88.76
73398;BME280;63606;52.328;20.964;2022-11-14T09:37:39;101916.03;;;7.76;87.97
73398;BME280;63606;52.328;20.964;2022-11-14T09:40:05;101910.69;;;7.76;88.23
73398;BME280;63606;52.328;20.964;2022-11-14T09:45:15;101914.09;;;7.70;87.19
73398;BME280;63606;52.328;20.964;2022-11-14T09:48:05;101905.88;;;7.71;88.36
73398;BME280;63606;52.328;20.964;2022-11-14T09:50:37;101906.53;;;7.73;88.92
73398;BME280;63606;52.328;20.964;2022-11-14T09:55:45;101895.16;;;7.71;88.39
73398;BME280;63606;52.328;20.964;2022-11-14T09:58:18;101906.34;;;7.75;88.37
73398;BME280;63606;52.328;20.964;2022-11-14T10:01:00;101906.53;;;7.73;88.11
73398;BME280;63606;52.328;20.964;2022-11-14T10:03:54;101901.44;;;7.79;88.43
73398;BME280;63606;52.328;20.964;2022-11-14T10:06:33;101902.06;;;7.81;89.13
73398;BME280;63606;52.328;20.964;2022-11-14T10:11:36;101901.63;;;7.77;89.46
73398;BME280;63606;52.328;20.964;2022-11-14T10:22:43;101889.91;;;7.78;87.42
73398;BME280;63606;52.328;20.964;2022-11-14T10:28:32;101896.72;;;7.81;86.81
73398;BME280;63606;52.328;20.964;2022-11-14T10:31:16;101886.00;;;7.81;88.46
73398;BME280;63606;52.328;20.964;2022-11-14T10:33:52;101881.97;;;7.85;87.45
73398;BME280;63606;52.328;20.964;2022-11-14T10:39:30;101880.47;;;7.97;88.59
73398;BME280;63606;52.328;20.964;2022-11-14T10:42:01;101870.78;;;7.96;87.96
73398;BME280;63606;52.328;20.964;2022-11-14T10:44:35;101869.56;;;7.98;88.44
73398;BME280;63606;52.328;20.964;2022-11-14T10:47:03;101869.09;;;7.95;88.15
73398;BME280;63606;52.328;20.964;2022-11-14T10:49:33;101861.47;;;7.92;88.49
73398;BME280;63606;52.328;20.964;2022-11-14T10:52:18;101858.50;;;7.87;88.80
73398;BME280;63606;52.328;20.964;2022-11-14T10:54:47;101842.63;;;7.85;89.05
73398;BME280;63606;52.328;20.964;2022-11-14T10:57:17;101850.47;;;7.87;89.29
73398;BME280;63606;52.328;20.964;2022-11-14T10:59:43;101853.13;;;7.87;89.17
73398;BME280;63606;52.328;20.964;2022-11-14T11:02:09;101846.75;;;7.88;89.16
73398;BME280;63606;52.328;20.964;2022-11-14T11:04:37;101855.44;;;7.90;89.05
73398;BME280;63606;52.328;20.964;2022-11-14T11:07:17;101851.09;;;7.89;89.51
73398;BME280;63606;52.328;20.964;2022-11-14T11:10:02;101850.06;;;7.90;89.18
73398;BME280;63606;52.328;20.964;2022-11-14T11:12:56;101840.13;;;7.84;89.31
73398;BME280;63606;52.328;20.964;2022-11-14T11:15:38;101835.59;;;7.84;88.61
73398;BME280;63606;52.328;20.964;2022-11-14T11:18:31;101827.09;;;7.81;89.06
73398;BME280;63606;52.328;20.964;2022-11-14T11:21:15;101820.75;;;7.82;89.51
73398;BME280;63606;52.328;20.964;2022-11-14T11:23:52;101826.94;;;7.82;89.18
73398;BME280;63606;52.328;20.964;2022-11-14T11:26:27;101819.44;;;7.78;89.84
73398;BME280;63606;52.328;20.964;2022-11-14T11:31:56;101808.81;;;7.69;89.92
73398;BME280;63606;52.328;20.964;2022-11-14T11:34:25;101808.09;;;7.75;89.87
73398;BME280;63606;52.328;20.964;2022-11-14T11:37:04;101800.69;;;7.78;90.10
73398;BME280;63606;52.328;20.964;2022-11-14T11:39:36;101797.38;;;7.75;90.09
73398;BME280;63606;52.328;20.964;2022-11-14T11:42:08;101792.66;;;7.78;89.52
73398;BME280;63606;52.328;20.964;2022-11-14T11:44:43;101791.56;;;7.72;89.54
73398;BME280;63606;52.328;20.964;2022-11-14T11:47:14;101788.22;;;7.70;90.18
73398;BME280;63606;52.328;20.964;2022-11-14T11:49:49;101793.16;;;7.66;90.01
73398;BME280;63606;52.328;20.964;2022-11-14T11:55:13;101786.38;;;7.70;89.99
73398;BME280;63606;52.328;20.964;2022-11-14T11:57:46;101780.19;;;7.70;89.97
73398;BME280;63606;52.328;20.964;2022-11-14T12:00:18;101774.94;;;7.77;89.40
73398;BME280;63606;52.328;20.964;2022-11-14T12:02:49;101785.00;;;7.74;89.39
73398;BME280;63606;52.328;20.964;2022-11-14T12:08:10;101782.00;;;7.63;89.52
73398;BME280;63606;52.328;20.964;2022-11-14T12:10:41;101784.66;;;7.63;90.40
73398;BME280;63606;52.328;20.964;2022-11-14T12:27:57;101770.81;;;7.59;87.83
73398;BME280;63606;52.328;20.964;2022-11-14T12:30:27;101769.53;;;7.55;89.62
73398;BME280;63606;52.328;20.964;2022-11-14T12:33:09;101771.19;;;7.56;88.69
73398;BME280;63606;52.328;20.964;2022-11-14T12:35:36;101767.75;;;7.62;87.79
73398;BME280;63606;52.328;20.964;2022-11-14T12:38:13;101767.09;;;7.60;87.69
73398;BME280;63606;52.328;20.964;2022-11-14T12:40:53;101767.50;;;7.57;88.08
73398;BME280;63606;52.328;20.964;2022-11-14T12:43:39;101775.53;;;7.57;89.14
73398;BME280;63606;52.328;20.964;2022-11-14T12:46:10;101776.16;;;7.59;88.38
73398;BME280;63606;52.328;20.964;2022-11-14T12:48:42;101776.78;;;7.61;88.44
73398;BME280;63606;52.328;20.964;2022-11-14T12:53:50;101767.94;;;7.61;88.24
73398;BME280;63606;52.328;20.964;2022-11-14T13:04:43;101768.75;;;7.61;87.58
73398;BME280;63606;52.328;20.964;2022-11-14T13:10:12;101770.81;;;7.59;87.92
73398;BME280;63606;52.328;20.964;2022-11-14T13:12:41;101769.97;;;7.59;88.53
73398;BME280;63606;52.328;20.964;2022-11-14T13:18:25;101776.53;;;7.56;87.90
73398;BME280;63606;52.328;20.964;2022-11-14T13:21:27;101773.22;;;7.54;87.34
73398;BME280;63606;52.328;20.964;2022-11-14T13:24:14;101767.78;;;7.47;88.37
73398;BME280;63606;52.328;20.964;2022-11-14T13:26:43;101768.22;;;7.51;87.76
73398;BME280;63606;52.328;20.964;2022-11-14T13:32:03;101760.97;;;7.45;87.89
73398;BME280;63606;52.328;20.964;2022-11-14T13:34:58;101755.41;;;7.32;88.25
73398;BME280;63606;52.328;20.964;2022-11-14T13:51:29;101753.03;;;7.22;88.66
73398;BME280;63606;52.328;20.964;2022-11-14T13:53:56;101753.84;;;7.23;87.55
73398;BME280;63606;52.328;20.964;2022-11-14T13:57:06;101755.88;;;7.21;88.13
73398;BME280;63606;52.328;20.964;2022-11-14T14:00:17;101760.31;;;7.13;88.20
73398;BME280;63606;52.328;20.964;2022-11-14T14:05:36;101760.03;;;7.08;87.99
73398;BME280;63606;52.328;20.964;2022-11-14T14:14:02;101737.06;;;7.14;88.14
73398;BME280;63606;52.328;20.964;2022-11-14T14:16:55;101731.91;;;7.12;88.04
73398;BME280;63606;52.328;20.964;2022-11-14T14:19:46;101733.28;;;7.08;87.43
73398;BME280;63606;52.328;20.964;2022-11-14T14:22:25;101726.09;;;7.09;88.61
73398;BME280;63606;52.328;20.964;2022-11-14T14:25:20;101726.09;;;7.09;88.77
73398;BME280;63606;52.328;20.964;2022-11-14T14:30:21;101706.94;;;7.05;87.72
73398;BME280;63606;52.328;20.964;2022-11-14T14:33:02;101709.59;;;7.05;88.73
73398;BME280;63606;52.328;20.964;2022-11-14T14:35:33;101703.50;;;7.11;88.22